Airport View

Enter AWOS ICAO identifier for current METAR.

ex. KFNL

K2P2 290345Z AUTO 31007KT 10SM BKN020 BKN027 OVC060 11/09 A2972 RMK AO2 T01110085

29 Sep 2020 03:51

Frequency: 118.525

Phone: 920 847 3024

Other Area AWOS: K3D2 - KESC - KMNM - KSUE

TAF AMD KSAW 290207Z 2902/2924 30006KT P6SM BKN040 FM290500 28007KT P6SM BKN018 FM291700 26008KT P6SM VCSH BKN020 FM292000 25007KT P6SM -SHRA OVC019